createdAt,value
2019-05-17T00:01:37.639Z,19.07
2019-05-17T00:04:09.415Z,17.62
2019-05-17T00:06:40.193Z,19.98
2019-05-17T00:09:10.834Z,17.65
2019-05-17T00:11:41.667Z,20.68
2019-05-17T00:14:12.227Z,18.82
2019-05-17T00:16:42.981Z,21.35
2019-05-17T00:19:16.733Z,23.77
2019-05-17T00:21:47.469Z,22.07
2019-05-17T00:24:19.231Z,19.15
2019-05-17T00:26:50.103Z,21.05
2019-05-17T00:29:21.824Z,21.35
2019-05-17T00:31:52.667Z,19.45
2019-05-17T00:34:23.325Z,18.75
2019-05-17T00:36:54.091Z,18.87
2019-05-17T00:39:27.204Z,16.30
2019-05-17T00:41:58.114Z,16.73
2019-05-17T00:44:28.725Z,16.90
2019-05-17T00:47:00.441Z,18.10
2019-05-17T00:49:31.953Z,19.85
2019-05-17T00:52:02.606Z,17.70
2019-05-17T00:54:33.165Z,20.25
2019-05-17T00:57:03.865Z,18.27
2019-05-17T00:59:36.883Z,17.90
2019-05-17T01:02:09.721Z,19.27
2019-05-17T01:04:40.081Z,18.87
2019-05-17T01:07:10.761Z,20.23
2019-05-17T01:09:41.312Z,17.67
2019-05-17T01:12:11.939Z,17.32
2019-05-17T01:14:42.788Z,19.55
2019-05-17T01:17:13.474Z,21.20
2019-05-17T01:19:47.236Z,19.23
2019-05-17T01:22:18.127Z,17.12
2019-05-17T01:24:48.785Z,23.55
2019-05-17T01:27:19.498Z,17.17
2019-05-17T01:29:51.167Z,17.60
2019-05-17T01:32:21.822Z,18.60
2019-05-17T01:34:52.468Z,18.82
2019-05-17T01:37:23.157Z,21.17
2019-05-17T01:39:57.237Z,16.75
2019-05-17T01:42:27.103Z,19.95
2019-05-17T01:44:57.631Z,17.32
2019-05-17T01:47:29.344Z,17.80
2019-05-17T01:49:59.911Z,15.65
2019-05-17T01:52:30.596Z,16.62
2019-05-17T01:55:01.136Z,18.62
2019-05-17T01:57:32.126Z,17.60
2019-05-17T02:00:02.985Z,20.10
2019-05-17T02:02:36.637Z,18.27
2019-05-17T02:05:08.638Z,18.92
2019-05-17T02:07:39.394Z,18.48
2019-05-17T02:10:11.640Z,21.35
2019-05-17T02:12:42.375Z,18.37
2019-05-17T02:15:16.479Z,18.95
2019-05-17T02:17:47.129Z,22.17
2019-05-17T02:20:19.230Z,17.10
2019-05-17T02:22:49.907Z,23.80
2019-05-17T02:25:21.850Z,43.05
2019-05-17T02:27:52.762Z,33.13
2019-05-17T02:30:24.571Z,20.72
2019-05-17T02:32:55.547Z,24.10
2019-05-17T02:35:26.201Z,22.00
2019-05-17T02:37:57.010Z,25.32
2019-05-17T02:40:28.594Z,22.65
2019-05-17T02:43:02.802Z,19.57
2019-05-17T02:45:32.726Z,21.77
2019-05-17T02:48:05.217Z,20.17
2019-05-17T02:50:36.788Z,19.85
2019-05-17T02:53:07.645Z,20.82
2019-05-17T02:55:38.182Z,19.20
2019-05-17T02:58:09.032Z,22.87
2019-05-17T03:00:39.798Z,21.87
2019-05-17T03:03:13.243Z,20.45
2019-05-17T03:05:43.149Z,19.27
2019-05-17T03:08:13.993Z,20.82
2019-05-17T03:10:45.692Z,20.68
2019-05-17T03:13:17.998Z,23.52
2019-05-17T03:15:48.852Z,36.38
2019-05-17T03:18:22.603Z,95.83
2019-05-17T03:20:52.714Z,65.55
2019-05-17T03:23:23.754Z,48.83
2019-05-17T03:25:54.503Z,31.20
2019-05-17T03:28:25.630Z,24.65
2019-05-17T03:30:56.945Z,23.47
2019-05-17T03:33:28.388Z,23.12
2019-05-17T03:36:05.401Z,22.25
2019-05-17T03:38:32.608Z,27.80
2019-05-17T03:41:17.109Z,23.92
2019-05-17T03:43:39.820Z,24.92
2019-05-17T03:46:08.023Z,23.40
2019-05-17T03:48:42.872Z,25.43
2019-05-17T03:51:13.158Z,23.75
2019-05-17T03:53:44.420Z,28.95
2019-05-17T03:56:15.330Z,29.10
2019-05-17T03:58:45.987Z,27.70
2019-05-17T04:01:16.537Z,25.43
2019-05-17T04:03:47.181Z,25.17
2019-05-17T04:06:17.721Z,26.52
2019-05-17T04:08:48.883Z,25.30
2019-05-17T04:11:27.992Z,26.00
2019-05-17T04:13:53.681Z,27.30
2019-05-17T04:16:23.928Z,25.35
2019-05-17T04:18:56.868Z,26.05
2019-05-17T04:21:27.493Z,28.30
2019-05-17T04:23:58.166Z,29.90
2019-05-17T04:26:28.819Z,29.27
2019-05-17T04:29:03.456Z,30.90
2019-05-17T04:31:34.698Z,32.28
2019-05-17T04:34:05.299Z,29.98
2019-05-17T04:36:35.386Z,29.90
2019-05-17T04:39:08.155Z,30.23
2019-05-17T04:41:45.581Z,31.45
2019-05-17T04:44:12.804Z,30.43
2019-05-17T04:46:43.359Z,26.70
2019-05-17T04:49:16.133Z,28.20
2019-05-17T04:51:46.666Z,46.53
2019-05-17T04:54:17.403Z,31.80
2019-05-17T04:56:47.977Z,25.88
2019-05-17T04:59:18.911Z,28.70
2019-05-17T05:01:49.528Z,28.02
2019-05-17T05:04:22.662Z,27.00
2019-05-17T05:06:52.636Z,27.98
2019-05-17T05:09:24.605Z,32.13
2019-05-17T05:12:01.136Z,30.90
2019-05-17T05:14:27.985Z,34.50
2019-05-17T05:17:02.610Z,30.90
2019-05-17T05:19:36.156Z,29.90
2019-05-17T05:22:08.489Z,30.68
2019-05-17T05:24:39.557Z,35.60
2019-05-17T05:27:11.628Z,34.30
2019-05-17T05:29:42.647Z,32.10
2019-05-17T05:32:13.325Z,32.65
2019-05-17T05:34:46.418Z,31.30
2019-05-17T05:37:16.279Z,31.12
2019-05-17T05:39:47.061Z,33.80
2019-05-17T05:42:17.763Z,26.27
2019-05-17T05:44:48.599Z,32.95
2019-05-17T05:47:19.234Z,29.18
2019-05-17T05:55:25.669Z,28.20
2019-05-17T05:57:56.374Z,35.20
2019-05-17T06:00:27.880Z,34.98
2019-05-17T06:02:58.585Z,31.90
2019-05-17T06:05:32.349Z,33.18
2019-05-17T06:08:02.890Z,35.10
2019-05-17T06:10:34.662Z,29.27
2019-05-17T06:13:05.489Z,30.27
2019-05-17T06:15:36.039Z,32.95
2019-05-17T06:18:07.691Z,32.70
2019-05-17T06:20:38.358Z,37.25
2019-05-17T06:23:09.046Z,40.92
2019-05-17T06:25:39.662Z,35.15
2019-05-17T06:28:11.468Z,28.65
2019-05-17T06:30:43.212Z,33.05
2019-05-17T06:33:27.169Z,25.97
2019-05-17T06:35:46.091Z,28.52
2019-05-17T06:38:16.702Z,27.45
2019-05-17T06:40:48.200Z,28.60
2019-05-17T06:43:18.819Z,26.60
2019-05-17T06:45:49.444Z,30.90
2019-05-17T06:48:22.325Z,30.75
2019-05-17T06:50:53.335Z,30.52
2019-05-17T06:53:25.098Z,23.90
2019-05-17T06:55:55.638Z,25.97
2019-05-17T06:58:27.262Z,23.18
2019-05-17T07:00:59.873Z,26.73
2019-05-17T07:03:30.169Z,23.15
2019-05-17T07:06:02.525Z,26.35
2019-05-17T07:08:33.194Z,23.00
2019-05-17T07:11:03.828Z,23.40
2019-05-17T07:13:34.472Z,22.65
2019-05-17T07:16:06.031Z,20.82
2019-05-17T07:18:36.681Z,19.77
2019-05-17T07:21:09.799Z,21.37
2019-05-17T07:23:39.825Z,19.60
2019-05-17T07:26:12.053Z,19.00
2019-05-17T07:28:43.906Z,21.15
2019-05-17T07:31:15.603Z,21.77
2019-05-17T07:33:46.140Z,23.02
2019-05-17T07:36:16.769Z,19.50
2019-05-17T07:38:47.422Z,20.57
2019-05-17T07:41:20.258Z,19.50
2019-05-17T07:43:50.195Z,17.20
2019-05-17T07:46:20.809Z,17.27
2019-05-17T07:48:52.427Z,18.75
2019-05-17T07:51:22.963Z,19.80
2019-05-17T07:53:54.536Z,20.68
2019-05-17T07:56:25.069Z,17.27
2019-05-17T07:58:56.881Z,22.62
2019-05-17T08:01:29.671Z,18.12
2019-05-17T08:04:00.762Z,20.10
2019-05-17T08:06:31.598Z,19.05
2019-05-17T08:09:04.626Z,20.75
2019-05-17T08:11:35.453Z,15.98
2019-05-17T08:14:06.296Z,17.07
2019-05-17T08:16:39.372Z,15.03
2019-05-17T08:19:10.200Z,15.18
2019-05-17T08:21:40.739Z,13.83
2019-05-17T08:24:11.550Z,15.32
2019-05-17T08:26:42.291Z,15.23
2019-05-17T08:29:12.909Z,12.55
2019-05-17T08:31:43.596Z,16.48
2019-05-17T08:34:14.317Z,13.83
2019-05-17T08:36:45.042Z,13.00
2019-05-17T08:39:15.718Z,11.88
2019-05-17T08:41:46.270Z,13.05
2019-05-17T08:44:19.132Z,13.58
2019-05-17T08:46:50.127Z,11.05
2019-05-17T08:49:21.918Z,15.65
2019-05-17T08:51:52.585Z,11.55
2019-05-17T08:54:24.233Z,11.97
2019-05-17T08:56:55.012Z,10.93
2019-05-17T08:59:25.680Z,13.58
2019-05-17T09:01:56.563Z,12.35
2019-05-17T09:04:29.608Z,15.25
2019-05-17T09:07:00.084Z,10.25
2019-05-17T09:09:32.592Z,10.85
2019-05-17T09:12:03.404Z,11.22
2019-05-17T09:14:33.971Z,11.05
2019-05-17T09:17:04.791Z,13.00
2019-05-17T09:19:36.535Z,11.90
2019-05-17T09:22:07.335Z,12.63
2019-05-17T09:24:39.637Z,11.33
2019-05-17T09:27:10.437Z,13.60
2019-05-17T09:29:40.964Z,11.45
2019-05-17T09:32:11.710Z,9.85
2019-05-17T09:34:42.244Z,10.08
2019-05-17T09:37:16.841Z,9.50
2019-05-17T09:39:49.136Z,10.40
2019-05-17T09:42:20.954Z,15.83
2019-05-17T09:44:51.452Z,19.15
2019-05-17T09:47:22.278Z,9.40
2019-05-17T09:49:53.803Z,9.15
2019-05-17T09:52:24.529Z,9.93
2019-05-17T09:54:55.964Z,14.75
2019-05-17T09:57:26.611Z,8.83
2019-05-17T09:59:57.147Z,9.38
2019-05-17T10:02:28.243Z,9.33
2019-05-17T10:04:59.813Z,8.95
2019-05-17T10:07:30.722Z,9.08
2019-05-17T10:10:02.706Z,6.90
2019-05-17T10:12:33.364Z,9.53
2019-05-17T10:15:05.195Z,10.28
2019-05-17T10:17:36.050Z,10.13
2019-05-17T10:20:10.572Z,6.97
2019-05-17T10:22:40.596Z,10.48
2019-05-17T10:25:11.302Z,8.45
2019-05-17T10:27:42.043Z,8.35
2019-05-17T10:30:13.926Z,8.28
2019-05-17T10:32:44.714Z,10.63
2019-05-17T10:35:15.426Z,5.97
2019-05-17T10:37:46.079Z,7.67
2019-05-17T10:40:17.301Z,5.40
2019-05-17T10:42:49.859Z,6.15
2019-05-17T10:45:20.212Z,5.22
2019-05-17T10:47:51.998Z,6.92
2019-05-17T10:50:22.743Z,6.15
2019-05-17T10:52:53.367Z,7.92
2019-05-17T10:55:24.903Z,6.90
2019-05-17T10:57:55.676Z,6.87
2019-05-17T11:00:30.136Z,6.65
2019-05-17T11:03:00.565Z,7.05
2019-05-17T11:05:31.458Z,4.65
2019-05-17T11:08:04.285Z,7.22
2019-05-17T11:10:35.451Z,7.50
2019-05-17T11:13:07.046Z,6.00
2019-05-17T11:15:37.829Z,3.20
2019-05-17T11:18:08.682Z,4.08
2019-05-17T11:20:39.502Z,4.53
2019-05-17T11:23:10.149Z,5.33
2019-05-17T11:25:45.557Z,8.35
2019-05-17T11:28:13.020Z,5.75
2019-05-17T11:30:44.484Z,5.83
2019-05-17T11:33:15.812Z,4.05
2019-05-17T11:35:46.387Z,4.28
2019-05-17T11:38:17.025Z,3.98
2019-05-17T11:40:49.940Z,5.78
2019-05-17T11:43:20.890Z,5.28
2019-05-17T11:45:55.585Z,4.35
2019-05-17T11:48:27.530Z,3.27
2019-05-17T11:50:58.309Z,3.12
2019-05-17T11:53:29.130Z,3.85
2019-05-17T11:56:01.608Z,4.20
2019-05-17T11:58:32.266Z,3.22
2019-05-17T12:01:03.022Z,3.45
2019-05-17T12:03:33.825Z,4.42
2019-05-17T12:06:05.008Z,3.75
2019-05-17T12:08:35.737Z,1.98
2019-05-17T12:11:06.574Z,3.55
2019-05-17T12:13:37.295Z,3.22
2019-05-17T12:16:07.954Z,3.98
2019-05-17T12:18:38.772Z,4.53
2019-05-17T12:21:09.485Z,2.80
2019-05-17T12:23:40.245Z,12.25
2019-05-17T12:26:10.987Z,5.30
2019-05-17T12:28:41.755Z,6.45
2019-05-17T12:31:12.389Z,1.30
2019-05-17T12:33:43.073Z,2.20
2019-05-17T12:36:13.833Z,5.10
2019-05-17T12:38:44.658Z,2.05
2019-05-17T12:41:15.177Z,1.72
2019-05-17T12:43:45.903Z,2.58
2019-05-17T12:46:16.413Z,2.33
2019-05-17T12:48:47.030Z,3.15
2019-05-17T12:51:18.550Z,1.85
2019-05-17T12:53:49.312Z,2.25
2019-05-17T12:56:20.866Z,2.58
2019-05-17T12:58:51.605Z,5.83
2019-05-17T13:01:22.207Z,2.25
2019-05-17T13:03:53.034Z,4.62
2019-05-17T13:06:23.743Z,3.67
2019-05-17T13:08:54.534Z,2.17
2019-05-17T13:11:25.184Z,3.90
2019-05-17T13:13:55.936Z,1.25
2019-05-17T13:16:26.636Z,2.10
2019-05-17T13:18:59.273Z,1.87
2019-05-17T13:21:30.005Z,1.67
2019-05-17T13:24:00.742Z,3.25
2019-05-17T13:26:31.362Z,1.92
2019-05-17T13:29:04.281Z,1.80
2019-05-17T13:31:34.801Z,1.75
2019-05-17T13:34:05.718Z,1.95
2019-05-17T13:36:36.335Z,2.15
2019-05-17T13:39:15.627Z,2.02
2019-05-17T13:41:46.286Z,1.87
2019-05-17T13:44:16.897Z,1.95
2019-05-17T13:46:47.413Z,2.40
2019-05-17T13:49:37.400Z,2.35
2019-05-17T13:52:07.923Z,4.78
2019-05-17T13:54:38.653Z,1.95
2019-05-17T13:57:11.476Z,2.80
2019-05-17T13:59:44.337Z,3.17
2019-05-17T14:02:14.950Z,2.80
2019-05-17T14:04:45.827Z,1.32
2019-05-17T14:07:16.450Z,4.58
2019-05-17T14:09:48.115Z,2.83
2019-05-17T14:12:18.764Z,3.22
2019-05-17T14:14:49.570Z,2.40
2019-05-17T14:17:20.115Z,8.53
2019-05-17T14:19:51.922Z,2.90
2019-05-17T14:22:22.561Z,2.80
2019-05-17T14:24:53.363Z,2.65
2019-05-17T14:27:25.339Z,2.12
2019-05-17T14:29:57.323Z,1.55
2019-05-17T14:32:28.273Z,1.60
2019-05-17T14:34:59.414Z,2.20
2019-05-17T14:37:30.226Z,1.35
2019-05-17T14:40:02.674Z,4.80
2019-05-17T14:42:33.180Z,2.35
2019-05-17T14:45:06.645Z,2.87
2019-05-17T14:47:37.151Z,3.92
2019-05-17T14:50:10.212Z,1.60
2019-05-17T14:52:40.707Z,3.98
2019-05-17T14:55:11.950Z,2.62
2019-05-17T14:57:43.423Z,18.75
2019-05-17T15:00:15.760Z,1.85
2019-05-17T15:02:46.706Z,1.87
2019-05-17T15:05:19.002Z,4.12
2019-05-17T15:07:49.618Z,1.65
2019-05-17T15:10:22.630Z,3.90
2019-05-17T15:12:53.601Z,2.02
2019-05-17T15:15:26.168Z,1.37
2019-05-17T15:17:57.095Z,1.75
2019-05-17T15:20:28.885Z,4.85
2019-05-17T15:22:59.524Z,4.08
2019-05-17T15:25:30.177Z,1.57
2019-05-17T15:28:00.718Z,2.05
2019-05-17T15:30:32.340Z,1.35
2019-05-17T15:33:04.668Z,2.22
2019-05-17T15:35:35.648Z,1.57
2019-05-17T15:38:06.694Z,1.92
2019-05-17T15:40:38.792Z,2.00
2019-05-17T15:43:09.290Z,3.60
2019-05-17T15:45:40.214Z,2.77
2019-05-17T15:48:11.013Z,4.17
2019-05-17T15:50:42.735Z,5.95
2019-05-17T15:53:13.441Z,3.30
2019-05-17T15:55:44.313Z,3.15
2019-05-17T15:58:15.863Z,1.77
2019-05-17T16:00:46.713Z,3.17
2019-05-17T16:03:17.321Z,2.50
2019-05-17T16:05:48.010Z,7.08
2019-05-17T16:08:18.634Z,3.83
2019-05-17T16:10:49.474Z,2.90
2019-05-17T16:13:20.206Z,2.65
2019-05-17T16:15:50.869Z,5.70
2019-05-17T16:18:22.631Z,5.67
2019-05-17T16:20:53.402Z,4.65
2019-05-17T16:23:24.010Z,3.92
2019-05-17T16:25:54.751Z,5.92
2019-05-17T16:28:25.353Z,3.27
2019-05-17T16:30:56.136Z,2.80
2019-05-17T16:33:26.650Z,4.28
2019-05-17T16:35:57.345Z,2.55
2019-05-17T16:38:27.878Z,2.17
2019-05-17T16:40:58.613Z,2.20
2019-05-17T16:43:29.328Z,3.77
2019-05-17T16:46:00.025Z,2.77
2019-05-17T16:48:30.581Z,2.70
2019-05-17T16:51:01.320Z,5.87
2019-05-17T16:53:31.910Z,2.65
2019-05-17T16:56:02.673Z,5.33
2019-05-17T16:58:34.742Z,3.55
2019-05-17T17:01:05.846Z,4.35
2019-05-17T17:03:44.206Z,3.92
2019-05-17T17:06:10.578Z,2.30
2019-05-17T17:08:42.279Z,3.10
2019-05-17T17:11:13.135Z,4.72
2019-05-17T17:13:43.829Z,2.87
2019-05-17T17:16:14.460Z,3.12
2019-05-17T17:18:45.195Z,3.20
2019-05-17T17:21:16.026Z,2.10
2019-05-17T17:23:46.633Z,4.47
2019-05-17T17:26:17.286Z,5.70
2019-05-17T17:28:48.079Z,3.70
2019-05-17T17:31:21.107Z,10.48
2019-05-17T17:33:51.701Z,3.80
2019-05-17T17:36:22.781Z,2.72
2019-05-17T17:38:55.192Z,3.20
2019-05-17T17:41:26.784Z,3.70
2019-05-17T17:43:59.169Z,2.52
2019-05-17T17:46:29.801Z,2.00
2019-05-17T17:49:00.495Z,2.47
2019-05-17T17:51:31.185Z,3.30
2019-05-17T17:54:01.818Z,2.20
2019-05-17T17:56:32.529Z,5.62
2019-05-17T17:59:04.366Z,20.08
2019-05-17T18:01:35.101Z,6.25
2019-05-17T18:04:05.849Z,4.37
2019-05-17T18:06:36.643Z,5.53
2019-05-17T18:09:08.543Z,2.50
2019-05-17T18:11:39.281Z,3.80
2019-05-17T18:14:13.183Z,5.20
2019-05-17T18:16:42.267Z,4.85
2019-05-17T18:19:13.916Z,3.33
2019-05-17T18:21:44.537Z,3.87
2019-05-17T18:24:15.200Z,5.50
2019-05-17T18:26:46.118Z,5.75
2019-05-17T18:29:17.122Z,4.05
2019-05-17T18:31:47.980Z,4.65
2019-05-17T18:34:19.285Z,4.05
2019-05-17T18:36:50.249Z,5.62
2019-05-17T18:39:20.952Z,5.65
2019-05-17T18:41:54.416Z,5.80
2019-05-17T18:44:27.899Z,6.75
2019-05-17T18:46:56.730Z,5.40
2019-05-17T18:49:27.469Z,6.37
2019-05-17T18:51:58.202Z,6.12
2019-05-17T18:54:28.843Z,8.08
2019-05-17T18:56:59.580Z,8.70
2019-05-17T18:59:36.638Z,6.92
2019-05-17T19:02:09.701Z,8.55
2019-05-17T19:04:40.932Z,10.20
2019-05-17T19:07:13.059Z,7.80
2019-05-17T19:09:44.358Z,6.97
2019-05-17T19:12:15.113Z,9.98
2019-05-17T19:14:45.740Z,6.50
2019-05-17T19:17:16.783Z,5.85
2019-05-17T19:19:52.494Z,7.08
2019-05-17T19:22:24.060Z,7.65
2019-05-17T19:24:55.322Z,7.80
2019-05-17T19:27:26.996Z,8.55
2019-05-17T19:29:57.633Z,8.93
2019-05-17T19:32:28.277Z,8.08
2019-05-17T19:34:58.802Z,12.60
2019-05-17T19:37:29.513Z,8.25
2019-05-17T19:40:00.070Z,9.65
2019-05-17T19:42:30.731Z,11.48
2019-05-17T19:45:01.386Z,14.58
2019-05-17T19:47:33.682Z,9.43
2019-05-17T19:50:06.403Z,9.03
2019-05-17T19:52:37.118Z,9.68
2019-05-17T19:55:09.745Z,9.45
2019-05-17T19:57:40.383Z,9.03
2019-05-17T20:00:12.571Z,12.37
2019-05-17T20:02:44.736Z,23.55
2019-05-17T20:05:15.356Z,7.12
2019-05-17T20:07:46.197Z,9.43
2019-05-17T20:10:18.037Z,10.18
2019-05-17T20:12:49.180Z,8.55
2019-05-17T20:15:33.612Z,8.40
2019-05-17T20:17:53.158Z,9.38
2019-05-17T20:20:24.203Z,7.55
2019-05-17T20:23:04.312Z,7.85
2019-05-17T20:25:35.503Z,9.78
2019-05-17T20:28:07.682Z,7.65
2019-05-17T20:30:38.385Z,9.65
2019-05-17T20:33:09.067Z,9.33
2019-05-17T20:35:40.007Z,8.68
2019-05-17T20:38:11.187Z,8.65
2019-05-17T20:40:44.933Z,9.13
2019-05-17T20:43:15.663Z,8.88
2019-05-17T20:45:46.316Z,10.65
2019-05-17T20:48:17.047Z,9.68
2019-05-17T20:50:47.625Z,10.15
2019-05-17T20:53:19.514Z,11.90
2019-05-17T20:55:54.126Z,14.55
2019-05-17T20:58:26.575Z,11.45
2019-05-17T21:00:59.576Z,11.90
2019-05-17T21:03:30.435Z,16.02
2019-05-17T21:06:01.300Z,12.93
2019-05-17T21:08:45.033Z,13.30
2019-05-17T21:11:15.909Z,13.70
2019-05-17T21:13:46.698Z,16.10
2019-05-17T21:16:17.353Z,14.23
2019-05-17T21:18:48.215Z,14.43
2019-05-17T21:26:50.198Z,14.95
2019-05-17T21:29:21.867Z,14.93
2019-05-17T21:32:00.866Z,15.98
2019-05-17T21:34:33.531Z,15.93
2019-05-17T21:37:10.184Z,12.70
2019-05-17T21:39:52.363Z,14.00
2019-05-17T21:42:23.534Z,14.20
2019-05-17T21:44:54.490Z,14.47
2019-05-17T21:47:25.134Z,15.23
2019-05-17T21:49:55.828Z,12.70
2019-05-17T21:52:26.727Z,14.43
2019-05-17T21:54:57.385Z,13.32
2019-05-17T21:57:28.015Z,15.25
2019-05-17T21:59:58.597Z,13.05
2019-05-17T22:02:30.694Z,14.35
2019-05-17T22:05:02.014Z,14.10
2019-05-17T22:07:34.883Z,14.68
2019-05-17T22:10:08.373Z,11.38
2019-05-17T22:12:39.960Z,12.30
2019-05-17T22:15:10.802Z,10.72
2019-05-17T22:17:41.594Z,11.75
2019-05-17T22:20:12.278Z,11.83
2019-05-17T22:22:43.226Z,14.83
2019-05-17T22:25:15.048Z,12.00
2019-05-17T22:27:45.610Z,13.43
2019-05-17T22:30:17.563Z,15.32
2019-05-17T22:32:48.112Z,13.22
2019-05-17T22:35:20.981Z,15.40
2019-05-17T22:37:54.107Z,12.95
2019-05-17T22:40:25.348Z,18.75
2019-05-17T22:42:55.992Z,14.35
2019-05-17T22:45:26.662Z,15.53
2019-05-17T22:47:57.374Z,14.87
2019-05-17T22:50:28.218Z,20.02
2019-05-17T22:52:58.835Z,18.95
2019-05-17T22:55:29.474Z,17.98
2019-05-17T22:58:00.035Z,18.05
2019-05-17T23:00:30.888Z,15.30
2019-05-17T23:03:01.653Z,13.65
2019-05-17T23:05:32.390Z,15.65
2019-05-17T23:08:03.024Z,17.92
2019-05-17T23:10:35.261Z,17.73
2019-05-17T23:13:05.926Z,13.72
2019-05-17T23:15:38.136Z,16.17
2019-05-17T23:18:08.720Z,16.55
2019-05-17T23:20:40.334Z,17.42
2019-05-17T23:23:10.997Z,15.95
2019-05-17T23:25:41.739Z,16.55
2019-05-17T23:28:12.307Z,20.40
2019-05-17T23:30:43.052Z,14.25
2019-05-17T23:33:13.696Z,16.35
2019-05-17T23:35:44.399Z,17.90
2019-05-17T23:38:15.096Z,19.77
2019-05-17T23:40:46.833Z,16.35
2019-05-17T23:43:17.484Z,16.37
2019-05-17T23:45:48.207Z,16.40
2019-05-17T23:48:18.828Z,17.20
2019-05-17T23:50:50.498Z,18.10
2019-05-17T23:53:21.045Z,13.58
2019-05-17T23:55:51.842Z,16.90
2019-05-17T23:58:22.446Z,16.55
